Time;durP1;ratioP1;P1;durP2;ratioP2;P2;SDS_P1;SDS_P2;PMS_P1;PMS_P2;Temp;Humidity;BMP_temperature;BMP_pressure;BME280_temperature;BME280_humidity;BME280_pressure;Samples;Min_cycle;Max_cycle;Signal;HPM_P1;HPM_P2
2021/06/01 00:01:56;;;;;;;45.88;8.77;;;;;;;;;;3534514;40;20356;-60
2021/06/01 00:04:22;;;;;;;43.60;9.52;;;;;;;;;;3536983;40;20041;-60
2021/06/01 00:06:49;;;;;;;49.20;10.18;;;;;;;;;;3538825;40;20124;-58
2021/06/01 00:09:16;;;;;;;37.53;8.77;;;;;;;;;;3540807;40;20409;-60
2021/06/01 00:11:42;;;;;;;46.78;10.20;;;;;;;;;;3541650;40;20033;-60
2021/06/01 00:14:09;;;;;;;44.67;9.35;;;;;;;;;;3541483;40;20056;-60
2021/06/01 00:16:35;;;;;;;60.13;10.75;;;;;;;;;;3539092;40;20042;-60
2021/06/01 00:19:01;;;;;;;54.03;10.05;;;;;;;;;;3537453;40;20055;-60
2021/06/01 00:21:28;;;;;;;47.78;11.20;;;;;;;;;;3535959;40;20038;-60
2021/06/01 00:23:54;;;;;;;53.72;9.90;;;;;;;;;;3532402;40;20084;-61
2021/06/01 00:26:21;;;;;;;43.47;8.65;;;;;;;;;;3532619;40;20446;-60
2021/06/01 00:28:47;;;;;;;45.53;8.95;;;;;;;;;;3534681;40;20026;-60
2021/06/01 00:31:13;;;;;;;49.15;10.15;;;;;;;;;;3536795;40;20706;-60
2021/06/01 00:33:39;;;;;;;46.97;10.13;;;;;;;;;;3537815;40;20118;-60
2021/06/01 00:36:06;;;;;;;41.88;9.80;;;;;;;;;;3539718;40;20038;-60
2021/06/01 00:38:33;;;;;;;43.25;9.88;;;;;;;;;;3532859;40;20051;-60
2021/06/01 00:40:59;;;;;;;43.83;9.52;;;;;;;;;;3533500;40;20046;-60
2021/06/01 00:43:25;;;;;;;32.67;8.48;;;;;;;;;;3535842;40;20411;-60
2021/06/01 00:45:51;;;;;;;43.45;10.10;;;;;;;;;;3537224;40;20179;-62
2021/06/01 00:48:17;;;;;;;47.08;9.60;;;;;;;;;;3539091;40;20133;-60
2021/06/01 00:50:43;;;;;;;46.80;8.95;;;;;;;;;;3540042;40;20026;-60
2021/06/01 00:53:10;;;;;;;45.42;9.15;;;;;;;;;;3540918;40;20125;-60
2021/06/01 00:55:36;;;;;;;41.58;8.05;;;;;;;;;;3535541;40;20063;-60
2021/06/01 00:58:03;;;;;;;44.05;8.00;;;;;;;;;;3536949;40;20934;-60
2021/06/01 01:02:58;;;;;;;53.90;8.93;;;;;;;;;;3539405;40;20484;-60
2021/06/01 01:05:30;;;;;;;47.55;9.38;;;;;;;;;;3541924;40;20054;-60
2021/06/01 01:10:58;;;;;;;53.92;10.30;;;;;;;;;;3535696;40;20102;-60
2021/06/01 01:13:24;;;;;;;33.40;8.10;;;;;;;;;;3537391;40;20822;-60
2021/06/01 01:15:50;;;;;;;39.25;8.50;;;;;;;;;;3539749;40;20030;-60
2021/06/01 01:18:21;;;;;;;50.03;10.50;;;;;;;;;;3541317;40;20642;-60
2021/06/01 01:21:00;;;;;;;42.00;8.10;;;;;;;;;;3540569;40;20034;-60
2021/06/01 01:23:28;;;;;;;41.83;7.55;;;;;;;;;;3539034;40;20031;-60
2021/06/01 01:26:03;;;;;;;77.45;11.07;;;;;;;;;;3536276;40;20033;-60
2021/06/01 01:28:38;;;;;;;78.30;10.38;;;;;;;;;;3540060;40;20416;-60
2021/06/01 01:31:09;;;;;;;72.13;10.80;;;;;;;;;;3541646;40;20054;-60
2021/06/01 01:33:37;;;;;;;63.63;9.82;;;;;;;;;;3538799;40;20038;-60
2021/06/01 01:36:05;;;;;;;50.35;10.85;;;;;;;;;;3537639;40;20408;-60
2021/06/01 01:38:31;;;;;;;44.30;8.25;;;;;;;;;;3537025;40;20059;-60
2021/06/01 01:41:16;;;;;;;74.75;11.45;;;;;;;;;;3534536;40;20027;-60
2021/06/01 01:43:44;;;;;;;68.93;10.93;;;;;;;;;;3532678;40;20046;-60
2021/06/01 01:46:24;;;;;;;68.47;10.70;;;;;;;;;;3533164;40;20049;-61
2021/06/01 01:49:01;;;;;;;59.50;10.40;;;;;;;;;;3537432;40;20045;-60
2021/06/01 01:51:37;;;;;;;53.53;9.65;;;;;;;;;;3536765;40;20041;-60
2021/06/01 01:54:24;;;;;;;62.70;10.75;;;;;;;;;;3537130;40;20039;-60
2021/06/01 01:56:53;;;;;;;58.65;10.55;;;;;;;;;;3537662;40;20740;-60
2021/06/01 01:59:21;;;;;;;45.10;8.93;;;;;;;;;;3538881;40;20046;-60
2021/06/01 02:01:48;;;;;;;57.15;10.75;;;;;;;;;;3538024;40;20042;-60
2021/06/01 02:04:17;;;;;;;49.53;9.63;;;;;;;;;;3536326;40;20094;-60
2021/06/01 02:06:43;;;;;;;41.78;8.70;;;;;;;;;;3536824;40;20057;-60
2021/06/01 02:09:09;;;;;;;41.72;8.77;;;;;;;;;;3540077;40;20427;-60
2021/06/01 02:11:36;;;;;;;47.67;9.20;;;;;;;;;;3540732;40;20046;-60
2021/06/01 02:14:03;;;;;;;37.70;8.38;;;;;;;;;;3535002;40;20055;-60
2021/06/01 02:16:39;;;;;;;47.80;9.98;;;;;;;;;;3535796;40;20046;-60
2021/06/01 02:19:06;;;;;;;49.25;9.70;;;;;;;;;;3534871;40;20066;-60
2021/06/01 02:21:59;;;;;;;52.55;9.80;;;;;;;;;;3535049;40;20031;-61
2021/06/01 02:24:22;;;;;;;60.35;10.02;;;;;;;;;;3536528;40;20124;-60
2021/06/01 02:27:04;;;;;;;58.97;10.05;;;;;;;;;;3539841;40;20404;-60
2021/06/01 02:29:46;;;;;;;63.47;10.45;;;;;;;;;;3536972;40;20043;-60
2021/06/01 02:32:12;;;;;;;63.53;10.55;;;;;;;;;;3538495;40;20604;-61
2021/06/01 02:34:39;;;;;;;49.40;9.57;;;;;;;;;;3538869;40;20034;-60
2021/06/01 02:37:06;;;;;;;55.72;9.35;;;;;;;;;;3537572;40;20101;-60
2021/06/01 02:39:34;;;;;;;48.47;9.02;;;;;;;;;;3534378;40;20038;-60
2021/06/01 02:42:01;;;;;;;60.90;11.38;;;;;;;;;;3535939;40;20113;-60
2021/06/01 02:44:27;;;;;;;56.83;9.80;;;;;;;;;;3535293;40;20046;-60
2021/06/01 02:46:54;;;;;;;58.08;9.57;;;;;;;;;;3537727;40;20379;-60
2021/06/01 02:49:20;;;;;;;41.38;8.30;;;;;;;;;;3533478;40;20039;-60
2021/06/01 02:51:47;;;;;;;36.80;8.45;;;;;;;;;;3533436;40;20583;-60
2021/06/01 02:54:13;;;;;;;48.17;8.88;;;;;;;;;;3535925;40;20062;-60
2021/06/01 02:56:39;;;;;;;39.47;8.45;;;;;;;;;;3538289;40;20404;-60
2021/06/01 02:59:07;;;;;;;30.75;7.53;;;;;;;;;;3538656;40;20141;-60
2021/06/01 03:01:34;;;;;;;33.83;8.00;;;;;;;;;;3535186;40;20039;-60
2021/06/01 03:04:00;;;;;;;30.73;7.25;;;;;;;;;;3537447;40;20045;-60
2021/06/01 03:06:27;;;;;;;31.35;7.55;;;;;;;;;;3539621;40;20756;-60
2021/06/01 03:08:53;;;;;;;42.92;8.90;;;;;;;;;;3537890;40;20189;-60
2021/06/01 03:11:20;;;;;;;37.40;8.20;;;;;;;;;;3536776;40;20046;-60
2021/06/01 03:13:50;;;;;;;41.10;8.80;;;;;;;;;;3537385;40;20058;-61
2021/06/01 03:16:17;;;;;;;38.10;8.23;;;;;;;;;;3539363;40;20484;-60
2021/06/01 03:18:44;;;;;;;35.08;8.25;;;;;;;;;;3538896;40;20034;-60
2021/06/01 03:21:11;;;;;;;39.97;9.48;;;;;;;;;;3538032;40;20042;-60
2021/06/01 03:23:37;;;;;;;52.58;10.80;;;;;;;;;;3535635;40;20123;-60
2021/06/01 03:26:03;;;;;;;49.65;9.77;;;;;;;;;;3536887;40;20049;-60
2021/06/01 03:28:30;;;;;;;44.13;9.15;;;;;;;;;;3536391;40;20038;-60
2021/06/01 03:30:56;;;;;;;45.25;9.35;;;;;;;;;;3532492;40;20027;-60
2021/06/01 03:33:22;;;;;;;51.45;10.23;;;;;;;;;;3535328;40;20302;-60
2021/06/01 03:35:48;;;;;;;59.90;12.30;;;;;;;;;;3535710;40;20030;-60
2021/06/01 03:38:15;;;;;;;44.90;10.18;;;;;;;;;;3539272;40;20034;-60
2021/06/01 03:40:41;;;;;;;54.22;11.35;;;;;;;;;;3539584;40;20026;-60
2021/06/01 03:43:07;;;;;;;50.40;10.60;;;;;;;;;;3540451;40;20129;-60
2021/06/01 03:45:34;;;;;;;46.72;10.73;;;;;;;;;;3541264;40;20038;-60
2021/06/01 03:48:01;;;;;;;49.05;10.43;;;;;;;;;;3539471;40;20022;-60
2021/06/01 03:50:27;;;;;;;36.50;9.18;;;;;;;;;;3537648;40;20093;-60
2021/06/01 03:52:53;;;;;;;47.47;9.32;;;;;;;;;;3540017;40;20015;-60
2021/06/01 03:55:19;;;;;;;49.25;10.95;;;;;;;;;;3537297;40;20068;-60
2021/06/01 03:57:46;;;;;;;52.63;10.63;;;;;;;;;;3537384;40;20043;-60
2021/06/01 04:00:14;;;;;;;52.80;10.90;;;;;;;;;;3536886;40;20486;-60
2021/06/01 04:02:41;;;;;;;55.17;11.85;;;;;;;;;;3535823;40;20051;-60
2021/06/01 04:05:07;;;;;;;46.22;10.27;;;;;;;;;;3538015;40;20788;-60
2021/06/01 04:07:33;;;;;;;44.42;10.20;;;;;;;;;;3537730;40;20628;-60
2021/06/01 04:09:59;;;;;;;45.65;11.30;;;;;;;;;;3535195;40;20038;-60
2021/06/01 04:12:27;;;;;;;40.58;10.43;;;;;;;;;;3536608;40;20037;-60
2021/06/01 04:14:53;;;;;;;40.72;10.13;;;;;;;;;;3538080;40;20050;-60
2021/06/01 04:17:19;;;;;;;41.78;10.38;;;;;;;;;;3537553;40;20031;-60
2021/06/01 04:19:45;;;;;;;45.75;12.32;;;;;;;;;;3535378;40;20333;-60
2021/06/01 04:22:11;;;;;;;40.33;9.57;;;;;;;;;;3535382;40;20530;-60
2021/06/01 04:24:37;;;;;;;37.53;9.35;;;;;;;;;;3537154;40;20054;-61
2021/06/01 04:27:03;;;;;;;43.50;10.05;;;;;;;;;;3538310;40;20405;-60
2021/06/01 04:29:30;;;;;;;47.42;11.45;;;;;;;;;;3537893;40;20031;-60
2021/06/01 04:31:56;;;;;;;43.55;10.45;;;;;;;;;;3535428;40;20031;-60
2021/06/01 04:34:22;;;;;;;53.75;12.35;;;;;;;;;;3536247;40;20290;-60
2021/06/01 04:36:48;;;;;;;47.65;12.25;;;;;;;;;;3540417;40;20030;-60
2021/06/01 04:39:14;;;;;;;54.85;12.85;;;;;;;;;;3540314;40;20026;-60
2021/06/01 04:41:40;;;;;;;56.50;13.07;;;;;;;;;;3539624;40;20082;-60
2021/06/01 04:44:07;;;;;;;55.72;12.32;;;;;;;;;;3536866;40;20034;-60
2021/06/01 04:46:33;;;;;;;43.10;11.35;;;;;;;;;;3539001;40;20066;-60
2021/06/01 04:49:00;;;;;;;40.75;11.80;;;;;;;;;;3541134;40;20050;-60
2021/06/01 04:51:26;;;;;;;46.30;13.23;;;;;;;;;;3533745;40;20050;-60
2021/06/01 04:53:53;;;;;;;49.10;13.10;;;;;;;;;;3537113;40;20042;-60
2021/06/01 04:56:20;;;;;;;50.67;14.30;;;;;;;;;;3537280;40;20039;-60
2021/06/01 04:58:46;;;;;;;48.55;13.15;;;;;;;;;;3538033;40;20054;-68
2021/06/01 05:01:12;;;;;;;51.38;14.40;;;;;;;;;;3538981;40;20109;-68
2021/06/01 05:03:39;;;;;;;40.72;11.32;;;;;;;;;;3534391;40;20049;-68
2021/06/01 05:06:05;;;;;;;57.85;13.10;;;;;;;;;;3537224;40;20046;-68
2021/06/01 05:08:31;;;;;;;47.92;12.35;;;;;;;;;;3536053;40;20047;-68
2021/06/01 05:10:57;;;;;;;52.45;11.82;;;;;;;;;;3538265;40;20023;-68
2021/06/01 05:13:23;;;;;;;59.03;12.52;;;;;;;;;;3535058;40;20082;-68
2021/06/01 05:15:49;;;;;;;39.22;12.27;;;;;;;;;;3539272;40;20042;-60
2021/06/01 05:18:16;;;;;;;49.97;13.00;;;;;;;;;;3541696;40;20614;-60
2021/06/01 05:20:43;;;;;;;47.88;11.65;;;;;;;;;;3537371;40;20042;-60
2021/06/01 05:23:09;;;;;;;49.38;12.07;;;;;;;;;;3537093;40;20035;-60
2021/06/01 05:25:36;;;;;;;51.80;12.90;;;;;;;;;;3539302;40;20074;-60
2021/06/01 05:28:02;;;;;;;49.42;13.80;;;;;;;;;;3537937;40;20046;-60
2021/06/01 05:33:12;;;;;;;71.00;16.15;;;;;;;;;;3537863;40;20039;-60
2021/06/01 05:35:42;;;;;;;88.97;15.95;;;;;;;;;;3533631;40;20039;-60
2021/06/01 05:38:09;;;;;;;69.10;14.48;;;;;;;;;;3535013;40;20129;-60
2021/06/01 05:40:35;;;;;;;59.03;13.02;;;;;;;;;;3538817;40;20093;-60
2021/06/01 05:43:01;;;;;;;58.55;13.40;;;;;;;;;;3536349;40;20026;-60
2021/06/01 05:45:27;;;;;;;69.03;14.45;;;;;;;;;;3538331;40;20117;-60
2021/06/01 05:47:54;;;;;;;68.70;13.68;;;;;;;;;;3534110;40;20039;-60
2021/06/01 05:50:20;;;;;;;69.82;13.85;;;;;;;;;;3535987;40;20038;-60
2021/06/01 05:52:46;;;;;;;70.97;13.90;;;;;;;;;;3538223;40;20086;-60
2021/06/01 05:55:12;;;;;;;84.45;15.40;;;;;;;;;;3539258;40;20148;-60
2021/06/01 05:57:38;;;;;;;48.50;11.68;;;;;;;;;;3539920;40;20031;-60
2021/06/01 06:00:05;;;;;;;66.20;14.88;;;;;;;;;;3537551;40;20132;-60
2021/06/01 06:02:32;;;;;;;54.03;12.73;;;;;;;;;;3538070;40;20034;-60
2021/06/01 06:04:59;;;;;;;62.78;14.75;;;;;;;;;;3539270;40;20057;-60
2021/06/01 06:07:25;;;;;;;56.90;13.02;;;;;;;;;;3529174;40;20447;-60
2021/06/01 06:09:51;;;;;;;69.22;15.20;;;;;;;;;;3540343;40;20144;-60
2021/06/01 06:12:17;;;;;;;49.92;11.13;;;;;;;;;;3539941;40;20041;-60
2021/06/01 06:14:43;;;;;;;71.18;13.55;;;;;;;;;;3538798;40;20035;-60
2021/06/01 06:17:12;;;;;;;75.22;15.00;;;;;;;;;;3538315;40;20090;-60
2021/06/01 06:19:43;;;;;;;77.40;16.05;;;;;;;;;;3536593;40;20039;-61
2021/06/01 06:22:09;;;;;;;61.03;12.73;;;;;;;;;;3535207;40;20302;-60
2021/06/01 06:24:35;;;;;;;59.83;13.27;;;;;;;;;;3535291;40;20042;-60
2021/06/01 06:27:02;;;;;;;61.58;13.90;;;;;;;;;;3538301;40;20286;-60
2021/06/01 06:29:28;;;;;;;71.75;13.75;;;;;;;;;;3536214;40;20054;-60
2021/06/01 06:31:54;;;;;;;55.80;13.13;;;;;;;;;;3534032;40;20053;-61
2021/06/01 06:34:20;;;;;;;12.45;7.45;;;;;;;;;;3535823;40;20877;-60
2021/06/01 06:36:46;;;;;;;88.07;15.68;;;;;;;;;;3538077;40;20050;-60
2021/06/01 06:39:12;;;;;;;27.10;14.00;;;;;;;;;;3533312;40;20035;-64
2021/06/01 06:41:38;;;;;;;70.85;14.02;;;;;;;;;;3535923;40;20126;-64
2021/06/01 06:44:08;;;;;;;83.50;15.35;;;;;;;;;;3535051;40;20039;-64
2021/06/01 06:46:41;;;;;;;43.50;10.15;;;;;;;;;;3533156;40;20682;-60
2021/06/01 06:49:08;;;;;;;21.75;10.32;;;;;;;;;;3531225;40;20035;-60
2021/06/01 06:51:34;;;;;;;51.80;12.45;;;;;;;;;;3537693;40;20518;-60
2021/06/01 06:54:00;;;;;;;78.30;13.75;;;;;;;;;;3535375;40;20405;-60
2021/06/01 06:56:28;;;;;;;66.18;13.05;;;;;;;;;;3535543;40;20144;-60
2021/06/01 06:58:55;;;;;;;105.28;17.58;;;;;;;;;;3534750;40;20050;-61
2021/06/01 07:01:21;;;;;;;51.03;11.57;;;;;;;;;;3534336;40;20034;-60
2021/06/01 07:03:47;;;;;;;89.07;16.58;;;;;;;;;;3536994;40;20037;-60
2021/06/01 07:06:13;;;;;;;19.23;8.77;;;;;;;;;;3528093;40;20046;-61
2021/06/01 07:08:40;;;;;;;12.88;6.28;;;;;;;;;;3535819;40;20058;-60
2021/06/01 07:11:06;;;;;;;72.32;13.80;;;;;;;;;;3536571;40;20046;-58
2021/06/01 07:13:42;;;;;;;52.38;12.55;;;;;;;;;;3538723;40;20042;-58
2021/06/01 07:16:08;;;;;;;62.67;13.38;;;;;;;;;;3536911;40;20133;-61
2021/06/01 07:18:38;;;;;;;61.22;12.68;;;;;;;;;;3537876;40;20050;-60
2021/06/01 07:21:06;;;;;;;60.35;13.05;;;;;;;;;;3538701;40;20304;-58
2021/06/01 07:23:32;;;;;;;66.30;12.82;;;;;;;;;;3535674;40;20047;-60
2021/06/01 07:25:58;;;;;;;74.35;13.27;;;;;;;;;;3535666;40;20046;-61
2021/06/01 07:28:24;;;;;;;82.28;14.63;;;;;;;;;;3532943;40;20331;-60
2021/06/01 07:30:50;;;;;;;98.00;22.05;;;;;;;;;;3530150;40;20772;-60
2021/06/01 07:33:16;;;;;;;84.22;14.73;;;;;;;;;;3535155;40;20043;-60
2021/06/01 07:35:42;;;;;;;88.82;14.90;;;;;;;;;;3533296;40;20041;-61
2021/06/01 07:38:11;;;;;;;86.75;14.05;;;;;;;;;;3535368;40;20026;-61
2021/06/01 07:40:38;;;;;;;79.22;13.43;;;;;;;;;;3538406;40;20626;-61
2021/06/01 07:43:04;;;;;;;87.30;14.02;;;;;;;;;;3539621;40;20297;-61
2021/06/01 07:45:32;;;;;;;90.80;13.98;;;;;;;;;;3537667;40;20558;-60
2021/06/01 07:47:58;;;;;;;111.13;15.60;;;;;;;;;;3533594;40;20050;-60
2021/06/01 07:50:24;;;;;;;101.65;14.23;;;;;;;;;;3536965;40;20039;-61
2021/06/01 07:52:50;;;;;;;84.35;13.15;;;;;;;;;;3538756;40;20050;-60
2021/06/01 07:55:16;;;;;;;93.05;13.65;;;;;;;;;;3540182;40;20042;-60
2021/06/01 07:57:43;;;;;;;122.30;16.13;;;;;;;;;;3536778;40;20035;-60
2021/06/01 08:00:10;;;;;;;108.63;14.63;;;;;;;;;;3536753;40;20039;-60
2021/06/01 08:02:39;;;;;;;84.22;12.82;;;;;;;;;;3537403;40;20085;-60
2021/06/01 08:05:06;;;;;;;15.20;8.15;;;;;;;;;;3535788;40;20054;-60
2021/06/01 08:07:33;;;;;;;42.53;9.07;;;;;;;;;;3534255;40;20090;-61
2021/06/01 08:09:59;;;;;;;30.15;9.60;;;;;;;;;;3533766;40;20046;-60
2021/06/01 08:12:25;;;;;;;48.40;13.02;;;;;;;;;;3533934;40;20390;-60
2021/06/01 08:14:53;;;;;;;30.30;8.48;;;;;;;;;;3536681;40;20319;-61
2021/06/01 08:17:19;;;;;;;23.83;6.90;;;;;;;;;;3539267;40;20034;-61
2021/06/01 08:19:46;;;;;;;18.52;6.38;;;;;;;;;;3540429;40;20027;-62
2021/06/01 08:22:30;;;;;;;14.90;7.20;;;;;;;;;;3542153;40;20140;-59
2021/06/01 08:24:56;;;;;;;25.52;9.93;;;;;;;;;;3540476;40;20058;-61
2021/06/01 08:27:22;;;;;;;35.22;9.65;;;;;;;;;;3539371;40;20034;-61
2021/06/01 08:29:48;;;;;;;63.92;11.55;;;;;;;;;;3537456;40;20081;-61
2021/06/01 08:32:14;;;;;;;58.35;10.07;;;;;;;;;;3536644;40;20039;-59
2021/06/01 08:34:40;;;;;;;49.08;10.00;;;;;;;;;;3535619;40;20053;-59
2021/06/01 08:37:06;;;;;;;58.65;11.70;;;;;;;;;;3535140;40;20301;-62
2021/06/01 08:39:32;;;;;;;56.97;10.00;;;;;;;;;;3539773;40;20034;-59
2021/06/01 08:41:59;;;;;;;50.45;8.27;;;;;;;;;;3538216;40;20446;-60
2021/06/01 08:44:27;;;;;;;79.53;11.77;;;;;;;;;;3538367;40;20613;-59
2021/06/01 08:46:55;;;;;;;44.15;9.40;;;;;;;;;;3540125;40;20046;-59
2021/06/01 08:49:21;;;;;;;57.53;10.40;;;;;;;;;;3541409;40;20031;-60
2021/06/01 08:51:48;;;;;;;43.83;8.85;;;;;;;;;;3540044;40;20132;-60
2021/06/01 08:54:14;;;;;;;56.58;10.13;;;;;;;;;;3538628;40;20041;-59
2021/06/01 08:56:40;;;;;;;45.85;9.13;;;;;;;;;;3538215;40;20145;-59
2021/06/01 08:59:06;;;;;;;59.67;9.50;;;;;;;;;;3535127;40;20047;-60
2021/06/01 09:01:32;;;;;;;53.28;9.15;;;;;;;;;;3533301;40;20861;-60
2021/06/01 09:04:04;;;;;;;47.70;8.80;;;;;;;;;;3533873;40;20042;-60
2021/06/01 09:06:33;;;;;;;57.50;9.73;;;;;;;;;;3539036;40;20042;-62
2021/06/01 09:22:34;;;;;;;57.90;8.90;;;;;;;;;;3537818;40;20282;-59
2021/06/01 09:25:03;;;;;;;62.30;9.57;;;;;;;;;;3537832;40;20078;-59
2021/06/01 09:27:31;;;;;;;61.17;10.80;;;;;;;;;;3541208;40;20549;-59
2021/06/01 09:29:57;;;;;;;20.35;8.25;;;;;;;;;;3540666;40;20082;-65
2021/06/01 09:32:24;;;;;;;22.45;8.65;;;;;;;;;;3539346;40;20031;-66
2021/06/01 09:34:52;;;;;;;14.30;5.63;;;;;;;;;;3537207;40;20504;-66
2021/06/01 09:37:19;;;;;;;20.20;6.47;;;;;;;;;;3537632;40;20039;-66
2021/06/01 09:39:45;;;;;;;20.50;7.15;;;;;;;;;;3540477;40;20064;-66
2021/06/01 09:42:24;;;;;;;97.20;11.18;;;;;;;;;;3541123;40;20042;-65
2021/06/01 09:45:06;;;;;;;109.45;13.00;;;;;;;;;;3538059;40;20044;-66
2021/06/01 09:48:11;;;;;;;87.70;10.88;;;;;;;;;;3536793;40;20478;-66
2021/06/01 09:53:07;;;;;;;69.50;9.07;;;;;;;;;;3530226;40;20031;-66
2021/06/01 09:55:36;;;;;;;56.85;7.82;;;;;;;;;;3532806;40;20039;-66
2021/06/01 09:58:05;;;;;;;20.88;6.88;;;;;;;;;;3539452;40;20155;-66
2021/06/01 10:00:32;;;;;;;7.13;2.53;;;;;;;;;;3538070;40;20034;-66
2021/06/01 10:03:03;;;;;;;6.28;2.72;;;26.00;56.40;;;;;;3537030;40;20128;-66
2021/06/01 10:05:34;;;;;;;3.42;2.38;;;26.30;53.90;;;;;;3537660;40;20777;-66
2021/06/01 10:08:12;;;;;;;71.63;10.05;;;;;;;;;;3532562;40;20043;-66
2021/06/01 10:10:38;;;;;;;77.43;11.57;;;;;;;;;;3536242;40;20041;-66
2021/06/01 10:13:09;;;;;;;59.08;9.43;;;;;;;;;;3535710;40;20047;-63
2021/06/01 10:15:36;;;;;;;121.20;14.35;;;;;;;;;;3537617;40;20061;-63
2021/06/01 10:18:07;;;;;;;105.95;12.75;;;;;;;;;;3534232;40;20172;-67
2021/06/01 10:20:34;;;;;;;148.35;17.48;;;;;;;;;;3540485;40;20140;-66
2021/06/01 10:23:01;;;;;;;143.65;15.93;;;;;;;;;;3535839;40;20036;-67
2021/06/01 10:25:27;;;;;;;123.63;14.27;;;;;;;;;;3536186;40;20058;-67
2021/06/01 10:27:58;;;;;;;98.53;11.95;;;;;;;;;;3536803;40;20031;-67
2021/06/01 10:30:30;;;;;;;86.72;11.13;;;;;;;;;;3535024;40;20568;-66
2021/06/01 10:32:59;;;;;;;104.78;11.70;;;;;;;;;;3523248;40;20178;-66
2021/06/01 10:35:26;;;;;;;92.80;11.52;;;;;;;;;;3534090;40;20031;-67
2021/06/01 10:48:53;;;;;;;45.13;7.18;;;;;;;;;;3540354;40;20784;-66
2021/06/01 10:51:29;;;;;;;49.58;8.25;;;;;;;;;;3532864;40;20058;-66
2021/06/01 10:53:55;;;;;;;39.72;6.88;;;;;;;;;;3535872;40;20043;-66
2021/06/01 10:56:22;;;;;;;55.33;9.60;;;;;;;;;;3533513;40;20508;-66
2021/06/01 10:58:53;;;;;;;69.53;11.10;;;;;;;;;;3535627;40;20086;-66
2021/06/01 11:04:18;;;;;;;82.25;10.20;;;29.50;67.90;;;;;;3537567;40;20053;-66
2021/06/01 11:06:52;;;;;;;77.65;10.02;;;;;;;;;;3536495;40;20034;-66
2021/06/01 11:09:34;;;;;;;79.72;10.00;;;;;;;;;;3534908;40;20031;-66
2021/06/01 11:12:00;;;;;;;82.95;10.77;;;;;;;;;;3534252;40;20027;-65
2021/06/01 11:14:28;;;;;;;86.38;10.77;;;;;;;;;;3532863;40;20047;-66
2021/06/01 11:16:55;;;;;;;92.20;10.70;;;;;;;;;;3537490;40;20034;-66
2021/06/01 11:19:24;;;;;;;91.63;11.30;;;;;;;;;;3537017;40;20172;-65
2021/06/01 11:22:02;;;;;;;96.35;11.18;;;;;;;;;;3535401;40;20042;-66
2021/06/01 11:35:15;;;;;;;23.35;5.72;;;;;;;;;;3537768;40;20067;-65
2021/06/01 11:43:13;;;;;;;47.58;7.85;;;;;;;;;;3535530;40;20088;-65
2021/06/01 11:45:42;;;;;;;8.60;3.42;;;;;;;;;;3536950;40;20285;-65
2021/06/01 11:48:25;;;;;;;89.90;12.18;;;;;;;;;;3537571;40;20047;-66
2021/06/01 11:51:11;;;;;;;69.57;10.18;;;;;;;;;;3538497;40;20042;-66
2021/06/01 11:53:46;;;;;;;72.68;10.45;;;;;;;;;;3533223;40;20413;-66
2021/06/01 11:56:13;;;;;;;50.22;7.97;;;;;;;;;;3540748;40;20594;-65
2021/06/01 12:02:04;;;;;;;54.40;8.40;;;;;;;;;;3536940;40;20892;-65
2021/06/01 12:18:26;;;;;;;54.38;8.35;;;;;;;;;;3539309;40;20084;-66
2021/06/01 12:20:52;;;;;;;45.95;7.68;;;;;;;;;;3532850;40;20043;-66
2021/06/01 12:23:38;;;;;;;50.17;8.27;;;;;;;;;;3533840;40;20125;-66
2021/06/01 12:26:11;;;;;;;49.40;8.80;;;;;;;;;;3537090;40;20050;-66
2021/06/01 12:31:47;;;;;;;74.93;9.93;;;;;;;;;;3532696;40;20042;-66
2021/06/01 12:34:16;;;;;;;29.80;6.47;;;;;;;;;;3534210;40;20146;-66
2021/06/01 12:42:35;;;;;;;44.88;7.47;;;;;;;;;;3536489;40;20031;-65
2021/06/01 12:45:01;;;;;;;62.33;8.23;;;;;;;;;;3532922;40;20042;-66
2021/06/01 13:20:35;;;;;;;134.00;16.52;;;;;;;;;;3536745;40;20051;-66
2021/06/01 13:32:09;;;;;;;103.00;11.57;;;;;;;;;;3534918;40;20045;-66
2021/06/01 13:40:05;;;;;;;102.38;14.13;;;;;;;;;;3534629;40;20153;-59
2021/06/01 13:48:18;;;;;;;73.53;9.52;;;;;;;;;;3538026;40;20038;-63
2021/06/01 13:50:57;;;;;;;76.13;10.13;;;;;;;;;;3539687;40;20136;-63
2021/06/01 15:28:54;;;;;;;2.20;1.20;;;;;;;;;;3533854;40;20050;-64
2021/06/01 16:32:15;;;;;;;1.20;1.10;;;;;;;;;;3532797;40;20042;-67
2021/06/01 17:05:23;;;;;;;7.18;2.92;;;;;;;;;;3537969;40;20117;-66
2021/06/01 17:13:02;;;;;;;;;;;;;;;;;;3540435;40;20051;-67
2021/06/01 17:15:28;;;;;;;21.45;5.75;;;;;;;;;;3537021;40;19933;-66
2021/06/01 17:18:03;;;;;;;23.65;7.05;;;;;;;;;;3536553;40;20189;-66
2021/06/01 17:21:05;;;;;;;23.40;6.80;;;;;;;;;;3537566;40;20043;-66
2021/06/01 17:36:58;;;;;;;33.17;7.30;;;;;;;;;;3540481;40;20045;-67
2021/06/01 17:39:24;;;;;;;38.95;11.32;;;;;;;;;;3538654;40;20052;-67
2021/06/01 17:41:52;;;;;;;27.25;6.03;;;;;;;;;;3536230;40;20030;-67
2021/06/01 17:44:21;;;;;;;29.85;6.55;;;;;;;;;;3535207;40;20042;-67
2021/06/01 17:46:47;;;;;;;41.75;7.72;;;;;;;;;;3536515;40;20027;-66
2021/06/01 17:49:14;;;;;;;42.20;7.00;;;;;;;;;;3538855;40;20054;-67
2021/06/01 17:51:42;;;;;;;44.50;7.95;;;;;;;;;;3532086;40;20614;-66
2021/06/01 17:54:08;;;;;;;43.47;8.40;;;;;;;;;;3534104;40;20031;-67
2021/06/01 17:56:35;;;;;;;35.70;6.40;;;;;;;;;;3537368;40;20408;-67
2021/06/01 17:59:01;;;;;;;39.40;7.30;;;;;;;;;;3536862;40;20414;-67
2021/06/01 18:01:29;;;;;;;30.85;6.20;;;;;;;;;;3537500;40;20543;-67
2021/06/01 18:04:00;;;;;;;49.70;8.50;;;;;;;;;;3535495;40;20054;-67
2021/06/01 18:06:34;;;;;;;44.88;8.13;;;;;;;;;;3539547;40;20313;-65
2021/06/01 18:41:55;;;;;;;32.15;7.15;;;;;;;;;;3536848;40;20045;-66
2021/06/01 19:25:11;;;;;;;34.37;8.50;;;;;;;;;;3539474;40;20094;-67
2021/06/01 19:52:10;;;;;;;38.47;8.75;;;;;;;;;;3538876;40;20634;-67
2021/06/01 19:54:36;;;;;;;50.55;10.10;;;;;;;;;;3536702;40;20026;-67
2021/06/01 19:57:02;;;;;;;40.83;8.98;;;;;;;;;;3537063;40;20048;-68
2021/06/01 19:59:29;;;;;;;45.35;8.45;;;;;;;;;;3537656;40;20023;-66
2021/06/01 20:01:55;;;;;;;34.22;7.07;;;;;;;;;;3537770;40;20035;-67
2021/06/01 20:04:22;;;;;;;35.03;7.88;;;;;;;;;;3535846;40;20097;-66
2021/06/01 20:06:48;;;;;;;51.22;9.70;;;;;;;;;;3535449;40;20113;-67
2021/06/01 20:09:18;;;;;;;39.85;8.20;;;;;;;;;;3535835;40;20035;-67
2021/06/01 20:11:45;;;;;;;39.63;7.43;;;;;;;;;;3538422;40;20038;-67
2021/06/01 20:14:11;;;;;;;38.42;7.75;;;;;;;;;;3541138;40;20129;-67
2021/06/01 20:16:40;;;;;;;41.03;7.65;;;;;;;;;;3541978;40;20060;-67
2021/06/01 20:19:06;;;;;;;46.78;8.25;;;;;;;;;;3538789;40;20038;-67
2021/06/01 20:21:33;;;;;;;42.85;7.45;;;;;;;;;;3535164;40;20023;-66
2021/06/01 20:24:02;;;;;;;40.67;7.68;;;;;;;;;;3537572;40;20045;-68
2021/06/01 20:26:30;;;;;;;40.05;7.53;;;;;;;;;;3539521;40;20293;-67
2021/06/01 20:29:05;;;;;;;25.55;5.35;;;;;;;;;;3541865;40;20037;-67
2021/06/01 20:31:32;;;;;;;33.95;7.15;;;;;;;;;;3536490;40;20034;-67
2021/06/01 20:34:03;;;;;;;32.83;6.75;;;;;;;;;;3540303;40;20041;-67
2021/06/01 20:36:29;;;;;;;37.22;7.32;;;;;;;;;;3537956;40;20066;-67
2021/06/01 20:38:56;;;;;;;30.23;6.10;;;;;;;;;;3536182;40;20092;-67
2021/06/01 20:41:22;;;;;;;31.92;6.55;;;;;;;;;;3533915;40;20035;-67
2021/06/01 20:43:48;;;;;;;29.15;6.35;;;;;;;;;;3531593;40;20043;-68
2021/06/01 20:46:15;;;;;;;33.83;6.72;;;;;;;;;;3534791;40;20043;-66
2021/06/01 20:48:41;;;;;;;38.13;7.82;;;;;;;;;;3535244;40;20153;-66
2021/06/01 20:51:07;;;;;;;23.58;5.40;;;;;;;;;;3536000;40;20065;-66
2021/06/01 20:53:33;;;;;;;23.50;4.90;;;;;;;;;;3539384;40;20658;-66
2021/06/01 20:55:59;;;;;;;26.85;5.50;;;;;;;;;;3539874;40;20035;-65
2021/06/01 20:58:44;;;;;;;24.33;5.20;;;;;;;;;;3540523;40;20104;-65
2021/06/01 21:01:11;;;;;;;40.53;6.82;;;;;;;;;;3534748;40;20189;-67
2021/06/01 21:03:39;;;;;;;33.97;6.53;;;;;;;;;;3536697;40;20031;-65
2021/06/01 21:06:06;;;;;;;29.58;5.78;;;;;;;;;;3537269;40;20373;-66
2021/06/01 21:08:33;;;;;;;32.10;5.95;;;;;;;;;;3540118;40;20036;-66
2021/06/01 21:11:04;;;;;;;27.75;5.85;;;;;;;;;;3541025;40;20076;-65
2021/06/01 21:13:30;;;;;;;31.65;6.15;;;;;;;;;;3538600;40;20043;-67
2021/06/01 21:15:57;;;;;;;33.97;6.13;;;;;;;;;;3536936;40;20703;-67
2021/06/01 21:18:23;;;;;;;40.15;6.75;;;;;;;;;;3534940;40;20139;-67
2021/06/01 21:20:49;;;;;;;51.63;7.72;;;;;;;;;;3532398;40;20155;-67
2021/06/01 21:23:15;;;;;;;49.70;7.63;;;;;;;;;;3531735;40;20462;-67
2021/06/01 21:25:42;;;;;;;34.97;5.78;;;;;;;;;;3533012;40;20058;-68
2021/06/01 21:28:08;;;;;;;40.38;6.38;;;;;;;;;;3534364;40;20070;-67
2021/06/01 21:30:35;;;;;;;43.45;6.70;;;;;;;;;;3536899;40;20038;-66
2021/06/01 21:33:03;;;;;;;44.92;7.05;;;;;;;;;;3538837;40;20050;-66
2021/06/01 21:35:29;;;;;;;37.28;5.72;;;;;;;;;;3540674;40;20705;-67
2021/06/01 21:37:58;;;;;;;47.08;7.30;;;;;;;;;;3539939;40;20027;-67
2021/06/01 21:40:25;;;;;;;25.77;4.35;;;;;;;;;;3539133;40;20034;-67
2021/06/01 21:42:51;;;;;;;38.67;6.43;;;;;;;;;;3537688;40;20039;-67
2021/06/01 21:45:22;;;;;;;38.00;6.80;;;;;;;;;;3534817;40;20038;-67
2021/06/01 21:47:52;;;;;;;37.42;6.35;;;;;;;;;;3533059;40;20051;-67